Stelios Filiagos — SVA3636 — position and weather

sailwx.info

Track history (hours):
 
Tides and Currents Weather Stations Pressure Air Temp Water Temp Dewpoint Dewpoint Depression Visibility Wind Speed Wind Dir Waves Ship Positions

Stelios Filiagos

Last reported at 2017-Nov-19 13:52 UTC. Time now 2017-Nov-19 19:50 UTC.
Position N 40°51' E 024°42'.

Length 106 m; draft 2.6 m.

Type: Passenger vessel. MMSI: 239630600.

Date/timePositionNaut miles runAvg speedWind from/ knotsBaromVisibWave heightAir tempDewpointWater temp
2017-Nov-19 13:52N 40°51' E 024°42'1 2.8
2017-Nov-19 13:30N 40°51' E 024°41'4 7.7
2017-Nov-19 13:00N 40°47' E 024°42'4 7.1
2017-Nov-19 12:30N 40°50' E 024°41'1 2.6
2017-Nov-19 12:00N 40°51' E 024°42'1 1.9
2017-Nov-19 11:30N 40°51' E 024°41'4 8.8
2017-Nov-19 11:00N 40°47' E 024°42'0 0.0
2017-Nov-19 10:30N 40°47' E 024°42'1 2.9
2017-Nov-19 10:00N 40°48' E 024°42'3 6.5
2017-Nov-19 09:30N 40°51' E 024°42'0 0.0
2017-Nov-19 09:00N 40°51' E 024°42'3 5.5
2017-Nov-19 08:30N 40°49' E 024°42'2 3.9
2017-Nov-19 08:00N 40°47' E 024°42'0 0.0
2017-Nov-18 11:46N 40°47' E 024°42'2 6.9
2017-Nov-18 11:30N 40°49' E 024°42'3 5.8
2017-Nov-18 11:00N 40°51' E 024°42'0 0.7
2017-Nov-18 10:30N 40°52' E 024°42'3 6.6
2017-Nov-18 10:00N 40°48' E 024°42'1 3.0
2017-Nov-18 09:30N 40°47' E 024°42'0 0.0
2017-Nov-17 13:52N 40°47' E 024°42'3 7.5
2017-Nov-17 13:30N 40°49' E 024°41'2 4.3
2017-Nov-17 13:00N 40°52' E 024°41'4 7.1
2017-Nov-17 12:30N 40°48' E 024°42'1 2.8
2017-Nov-17 12:00N 40°47' E 024°42'0 0.0
2017-Nov-17 11:30N 40°47' E 024°42'0 0.0
2017-Nov-17 11:00N 40°47' E 024°42'2 3.4
2017-Nov-17 10:30N 40°48' E 024°42'3 6.2
2017-Nov-17 10:00N 40°51' E 024°42'1 2.7
2017-Nov-17 09:30N 40°50' E 024°41'4 7.0
2017-Nov-17 09:00N 40°47' E 024°42'0 0.0
2017-Nov-17 08:30N 40°47' E 024°42'0 0.0
2017-Nov-17 08:00N 40°47' E 024°42'0 0.0
2017-Nov-17 07:30N 40°47' E 024°42'0 0.0
2017-Nov-17 07:00N 40°47' E 024°42'4 7.5
2017-Nov-17 06:30N 40°51' E 024°41'1 2.4
2017-Nov-17 06:00N 40°51' E 024°42'1 2.7
2017-Nov-17 05:30N 40°50' E 024°41'4 7.1
2017-Nov-17 05:00N 40°47' E 024°42'0 0.0
2017-Nov-16 08:42N 40°47' E 024°42'0 0.0
2017-Nov-16 08:31N 40°47' E 024°42'0 0.0
2017-Nov-16 08:00N 40°47' E 024°42'2 3.5
2017-Nov-16 07:31N 40°49' E 024°42'3 5.8
2017-Nov-16 07:00N 40°51' E 024°42'1 1.1
2017-Nov-16 06:31N 40°52' E 024°41'5 4.7
2017-Nov-16 05:30N 40°47' E 024°42'4 7.6
2017-Nov-16 05:00N 40°51' E 024°41'1 2.7
2017-Nov-16 04:31N 40°51' E 024°42'2 3.8
2017-Nov-16 04:01N 40°50' E 024°41'3 0.2
2017-Nov-15 13:00N 40°47' E 024°42'1 1.6
2017-Nov-15 12:30N 40°48' E 024°42'3 6.7
2017-Nov-15 12:00N 40°51' E 024°41'1 2.6
2017-Nov-15 11:30N 40°51' E 024°42'2 3.8
2017-Nov-15 11:01N 40°50' E 024°41'3 6.7
2017-Nov-15 10:30N 40°47' E 024°42'0 0.0
2017-Nov-15 10:00N 40°47' E 024°42'0 0.0
2017-Nov-15 09:30N 40°47' E 024°42'0 0.0
2017-Nov-15 09:00N 40°47' E 024°42'0 0.0
2017-Nov-15 08:30N 40°47' E 024°42'0 0.0
2017-Nov-15 08:00N 40°47' E 024°42'0 0.0
2017-Nov-15 07:31N 40°47' E 024°42'0 0.0
2017-Nov-15 07:00N 40°47' E 024°42'0 0.0
2017-Nov-15 06:30N 40°47' E 024°42'0 0.0
2017-Nov-15 06:00N 40°47' E 024°42'0 0.7
2017-Nov-15 05:30N 40°47' E 024°42'4 7.2
2017-Nov-15 05:00N 40°51' E 024°41'1 2.4
2017-Nov-15 04:30N 40°51' E 024°42'1 2.6
2017-Nov-15 04:01N 40°50' E 024°41'4 7.5
2017-Nov-15 03:31N 40°47' E 024°42'0 0.0
2017-Nov-14 12:42N 40°47' E 024°42'0 0.0
2017-Nov-14 12:31N 40°47' E 024°42'3 5.3
2017-Nov-14 12:01N 40°49' E 024°41'2 4.5
2017-Nov-14 11:31N 40°51' E 024°42'1 2.5
2017-Nov-14 11:01N 40°50' E 024°41'4 7.4
2017-Nov-14 10:30N 40°47' E 024°42'0 0.0
2017-Nov-14 10:01N 40°47' E 024°42'0 0.0
2017-Nov-14 09:31N 40°47' E 024°42'0 0.0
2017-Nov-14 09:01N 40°47' E 024°42'0 0.0
2017-Nov-14 08:31N 40°47' E 024°42'0 0.0
2017-Nov-14 08:00N 40°47' E 024°42'0 0.0
2017-Nov-14 07:31N 40°47' E 024°42'0 0.0
2017-Nov-14 07:01N 40°47' E 024°42'0 0.0
2017-Nov-14 06:30N 40°47' E 024°42'2 3.0
2017-Nov-14 06:01N 40°48' E 024°42'3 6.4
2017-Nov-14 05:31N 40°51' E 024°42'0 0.2
2017-Nov-14 05:00N 40°52' E 024°42'3 6.1
2017-Nov-14 04:30N 40°48' E 024°42'2 3.5
2017-Nov-14 04:01N 40°47' E 024°42'5 0.1
2017-Nov-12 17:49N 40°51' E 024°42'1 3.5
2017-Nov-12 17:30N 40°51' E 024°41'4 8.6
2017-Nov-12 17:00N 40°47' E 024°42'0 0.0
2017-Nov-12 16:30N 40°47' E 024°42'0 0.0
2017-Nov-12 16:00N 40°47' E 024°42'1 2.7
2017-Nov-12 15:30N 40°48' E 024°42'3 6.6
2017-Nov-12 15:00N 40°51' E 024°42'1 1.8
2017-Nov-12 14:30N 40°51' E 024°41'4 8.3
2017-Nov-12 14:00N 40°47' E 024°42'0 0.0
2017-Nov-11 14:44N 40°47' E 024°42'1 6.4
2017-Nov-11 14:30N 40°48' E 024°42'3 6.3
2017-Nov-11 14:00N 40°51' E 024°42'1 1.9
2017-Nov-11 13:30N 40°51' E 024°41'4 8.5
2017-Nov-11 13:00N 40°47' E 024°42'0 0.0
2017-Nov-11 08:37N 40°47' E 024°42'0 0.0
2017-Nov-11 08:30N 40°47' E 024°42'3 5.1
2017-Nov-11 08:00N 40°49' E 024°42'2 4.5
2017-Nov-11 07:30N 40°52' E 024°42'1 1.6
2017-Nov-11 07:01N 40°51' E 024°41'4 8.4
2017-Nov-11 06:30N 40°47' E 024°42'0 0.0
2017-Nov-11 06:01N 40°47' E 024°42'0 0.0
2017-Nov-11 05:30N 40°47' E 024°42'0 0.0
2017-Nov-11 05:00N 40°47' E 024°42'2 3.6
2017-Nov-11 04:30N 40°49' E 024°42'3 5.7
2017-Nov-11 04:00N 40°51' E 024°42'0 0.0
2017-Nov-11 03:31N 40°51' E 024°42'0 0.0
2017-Nov-10 15:51N 40°51' E 024°42'1 2.5
2017-Nov-10 15:30N 40°51' E 024°41'4 8.5
2017-Nov-10 15:00N 40°47' E 024°42'0 0.0
2017-Nov-10 14:30N 40°47' E 024°42'2 4.9
2017-Nov-10 14:00N 40°49' E 024°42'2 0.5
2017-Nov-10 09:10N 40°51' E 024°42'0 0.0
2017-Nov-10 09:00N 40°51' E 024°42'0 0.7
2017-Nov-10 08:30N 40°52' E 024°42'0 0.7
2017-Nov-10 08:00N 40°51' E 024°42'0 0.0
2017-Nov-10 07:30N 40°51' E 024°42'1 2.1
2017-Nov-10 07:00N 40°51' E 024°41'4 8.2
2017-Nov-10 06:30N 40°47' E 024°42'0 0.0
2017-Nov-10 06:00N 40°47' E 024°42'0 0.0
2017-Nov-10 05:30N 40°47' E 024°42'0 0.0
2017-Nov-10 05:00N 40°47' E 024°42'1 3.0
2017-Nov-10 04:30N 40°48' E 024°42'3 6.4
2017-Nov-10 04:00N 40°51' E 024°42'0 0.0
2017-Nov-09 15:45N 40°51' E 024°42'1 4.3
2017-Nov-09 15:30N 40°51' E 024°41'4 8.1
2017-Nov-09 15:00N 40°47' E 024°42'0 0.0
2017-Nov-09 14:30N 40°47' E 024°42'0 0.0
2017-Nov-09 14:00N 40°47' E 024°42'  
Track history (hours):
 
Tides and Currents Weather Stations Pressure Air Temp Water Temp Dewpoint Dewpoint Depression Visibility Wind Speed Wind Dir Waves Ship Positions

Stelios Filiagos

Last reported at 2017-Nov-19 13:52 UTC. Time now 2017-Nov-19 19:50 UTC.
Position N 40°51' E 024°42'.

Length 106 m; draft 2.6 m.

Type: Passenger vessel. MMSI: 239630600.

Date/timePositionNaut miles runAvg speedWind from/ knotsBaromVisibWave heightAir tempDewpointWater temp
2017-Nov-19 13:52N 40°51' E 024°42'1 2.8
2017-Nov-19 13:30N 40°51' E 024°41'4 7.7
2017-Nov-19 13:00N 40°47' E 024°42'4 7.1
2017-Nov-19 12:30N 40°50' E 024°41'1 2.6
2017-Nov-19 12:00N 40°51' E 024°42'1 1.9
2017-Nov-19 11:30N 40°51' E 024°41'4 8.8
2017-Nov-19 11:00N 40°47' E 024°42'0 0.0
2017-Nov-19 10:30N 40°47' E 024°42'1 2.9
2017-Nov-19 10:00N 40°48' E 024°42'3 6.5
2017-Nov-19 09:30N 40°51' E 024°42'0 0.0
2017-Nov-19 09:00N 40°51' E 024°42'3 5.5
2017-Nov-19 08:30N 40°49' E 024°42'2 3.9
2017-Nov-19 08:00N 40°47' E 024°42'0 0.0
2017-Nov-18 11:46N 40°47' E 024°42'2 6.9
2017-Nov-18 11:30N 40°49' E 024°42'3 5.8
2017-Nov-18 11:00N 40°51' E 024°42'0 0.7
2017-Nov-18 10:30N 40°52' E 024°42'3 6.6
2017-Nov-18 10:00N 40°48' E 024°42'1 3.0
2017-Nov-18 09:30N 40°47' E 024°42'0 0.0
2017-Nov-17 13:52N 40°47' E 024°42'3 7.5
2017-Nov-17 13:30N 40°49' E 024°41'2 4.3
2017-Nov-17 13:00N 40°52' E 024°41'4 7.1
2017-Nov-17 12:30N 40°48' E 024°42'1 2.8
2017-Nov-17 12:00N 40°47' E 024°42'0 0.0
2017-Nov-17 11:30N 40°47' E 024°42'0 0.0
2017-Nov-17 11:00N 40°47' E 024°42'2 3.4
2017-Nov-17 10:30N 40°48' E 024°42'3 6.2
2017-Nov-17 10:00N 40°51' E 024°42'1 2.7
2017-Nov-17 09:30N 40°50' E 024°41'4 7.0
2017-Nov-17 09:00N 40°47' E 024°42'0 0.0
2017-Nov-17 08:30N 40°47' E 024°42'0 0.0
2017-Nov-17 08:00N 40°47' E 024°42'0 0.0
2017-Nov-17 07:30N 40°47' E 024°42'0 0.0
2017-Nov-17 07:00N 40°47' E 024°42'4 7.5
2017-Nov-17 06:30N 40°51' E 024°41'1 2.4
2017-Nov-17 06:00N 40°51' E 024°42'1 2.7
2017-Nov-17 05:30N 40°50' E 024°41'4 7.1
2017-Nov-17 05:00N 40°47' E 024°42'0 0.0
2017-Nov-16 08:42N 40°47' E 024°42'0 0.0
2017-Nov-16 08:31N 40°47' E 024°42'0 0.0
2017-Nov-16 08:00N 40°47' E 024°42'2 3.5
2017-Nov-16 07:31N 40°49' E 024°42'3 5.8
2017-Nov-16 07:00N 40°51' E 024°42'1 1.1
2017-Nov-16 06:31N 40°52' E 024°41'5 4.7
2017-Nov-16 05:30N 40°47' E 024°42'4 7.6
2017-Nov-16 05:00N 40°51' E 024°41'1 2.7
2017-Nov-16 04:31N 40°51' E 024°42'2 3.8
2017-Nov-16 04:01N 40°50' E 024°41'3 0.2
2017-Nov-15 13:00N 40°47' E 024°42'1 1.6
2017-Nov-15 12:30N 40°48' E 024°42'3 6.7
2017-Nov-15 12:00N 40°51' E 024°41'1 2.6
2017-Nov-15 11:30N 40°51' E 024°42'2 3.8
2017-Nov-15 11:01N 40°50' E 024°41'3 6.7
2017-Nov-15 10:30N 40°47' E 024°42'0 0.0
2017-Nov-15 10:00N 40°47' E 024°42'0 0.0
2017-Nov-15 09:30N 40°47' E 024°42'0 0.0
2017-Nov-15 09:00N 40°47' E 024°42'0 0.0
2017-Nov-15 08:30N 40°47' E 024°42'0 0.0
2017-Nov-15 08:00N 40°47' E 024°42'0 0.0
2017-Nov-15 07:31N 40°47' E 024°42'0 0.0
2017-Nov-15 07:00N 40°47' E 024°42'0 0.0
2017-Nov-15 06:30N 40°47' E 024°42'0 0.0
2017-Nov-15 06:00N 40°47' E 024°42'0 0.7
2017-Nov-15 05:30N 40°47' E 024°42'4 7.2
2017-Nov-15 05:00N 40°51' E 024°41'1 2.4
2017-Nov-15 04:30N 40°51' E 024°42'1 2.6
2017-Nov-15 04:01N 40°50' E 024°41'4 7.5
2017-Nov-15 03:31N 40°47' E 024°42'0 0.0
2017-Nov-14 12:42N 40°47' E 024°42'0 0.0
2017-Nov-14 12:31N 40°47' E 024°42'3 5.3
2017-Nov-14 12:01N 40°49' E 024°41'2 4.5
2017-Nov-14 11:31N 40°51' E 024°42'1 2.5
2017-Nov-14 11:01N 40°50' E 024°41'4 7.4
2017-Nov-14 10:30N 40°47' E 024°42'0 0.0
2017-Nov-14 10:01N 40°47' E 024°42'0 0.0
2017-Nov-14 09:31N 40°47' E 024°42'0 0.0
2017-Nov-14 09:01N 40°47' E 024°42'0 0.0
2017-Nov-14 08:31N 40°47' E 024°42'0 0.0
2017-Nov-14 08:00N 40°47' E 024°42'0 0.0
2017-Nov-14 07:31N 40°47' E 024°42'0 0.0
2017-Nov-14 07:01N 40°47' E 024°42'0 0.0
2017-Nov-14 06:30N 40°47' E 024°42'2 3.0
2017-Nov-14 06:01N 40°48' E 024°42'3 6.4
2017-Nov-14 05:31N 40°51' E 024°42'0 0.2
2017-Nov-14 05:00N 40°52' E 024°42'3 6.1
2017-Nov-14 04:30N 40°48' E 024°42'2 3.5
2017-Nov-14 04:01N 40°47' E 024°42'5 0.1
2017-Nov-12 17:49N 40°51' E 024°42'1 3.5
2017-Nov-12 17:30N 40°51' E 024°41'4 8.6
2017-Nov-12 17:00N 40°47' E 024°42'0 0.0
2017-Nov-12 16:30N 40°47' E 024°42'0 0.0
2017-Nov-12 16:00N 40°47' E 024°42'1 2.7
2017-Nov-12 15:30N 40°48' E 024°42'3 6.6
2017-Nov-12 15:00N 40°51' E 024°42'1 1.8
2017-Nov-12 14:30N 40°51' E 024°41'4 8.3
2017-Nov-12 14:00N 40°47' E 024°42'0 0.0
2017-Nov-11 14:44N 40°47' E 024°42'1 6.4
2017-Nov-11 14:30N 40°48' E 024°42'3 6.3
2017-Nov-11 14:00N 40°51' E 024°42'1 1.9
2017-Nov-11 13:30N 40°51' E 024°41'4 8.5
2017-Nov-11 13:00N 40°47' E 024°42'0 0.0
2017-Nov-11 08:37N 40°47' E 024°42'0 0.0
2017-Nov-11 08:30N 40°47' E 024°42'3 5.1
2017-Nov-11 08:00N 40°49' E 024°42'2 4.5
2017-Nov-11 07:30N 40°52' E 024°42'1 1.6
2017-Nov-11 07:01N 40°51' E 024°41'4 8.4
2017-Nov-11 06:30N 40°47' E 024°42'0 0.0
2017-Nov-11 06:01N 40°47' E 024°42'0 0.0
2017-Nov-11 05:30N 40°47' E 024°42'0 0.0
2017-Nov-11 05:00N 40°47' E 024°42'2 3.6
2017-Nov-11 04:30N 40°49' E 024°42'3 5.7
2017-Nov-11 04:00N 40°51' E 024°42'0 0.0
2017-Nov-11 03:31N 40°51' E 024°42'0 0.0
2017-Nov-10 15:51N 40°51' E 024°42'1 2.5
2017-Nov-10 15:30N 40°51' E 024°41'4 8.5
2017-Nov-10 15:00N 40°47' E 024°42'0 0.0
2017-Nov-10 14:30N 40°47' E 024°42'2 4.9
2017-Nov-10 14:00N 40°49' E 024°42'2 0.5
2017-Nov-10 09:10N 40°51' E 024°42'0 0.0
2017-Nov-10 09:00N 40°51' E 024°42'0 0.7
2017-Nov-10 08:30N 40°52' E 024°42'0 0.7
2017-Nov-10 08:00N 40°51' E 024°42'0 0.0
2017-Nov-10 07:30N 40°51' E 024°42'1 2.1
2017-Nov-10 07:00N 40°51' E 024°41'4 8.2
2017-Nov-10 06:30N 40°47' E 024°42'0 0.0
2017-Nov-10 06:00N 40°47' E 024°42'0 0.0
2017-Nov-10 05:30N 40°47' E 024°42'0 0.0
2017-Nov-10 05:00N 40°47' E 024°42'1 3.0
2017-Nov-10 04:30N 40°48' E 024°42'3 6.4
2017-Nov-10 04:00N 40°51' E 024°42'0 0.0
2017-Nov-09 15:45N 40°51' E 024°42'1 4.3
2017-Nov-09 15:30N 40°51' E 024°41'4 8.1
2017-Nov-09 15:00N 40°47' E 024°42'0 0.0
2017-Nov-09 14:30N 40°47' E 024°42'0 0.0
2017-Nov-09 14:00N 40°47' E 024°42'  

Dump ship's entire track history